createdAt,value
2022-08-02T00:00:35.205Z,11.13
2022-08-02T00:03:02.072Z,8.67
2022-08-02T00:05:29.097Z,8.40
2022-08-02T00:07:55.961Z,8.53
2022-08-02T00:10:22.880Z,8.90
2022-08-02T00:12:49.708Z,8.90
2022-08-02T00:16:07.299Z,10.53
2022-08-02T00:18:34.276Z,7.87
2022-08-02T00:21:01.238Z,6.23
2022-08-02T00:23:28.118Z,7.63
2022-08-02T00:25:56.014Z,7.93
2022-08-02T00:28:23.537Z,6.90
2022-08-02T00:30:55.264Z,9.50
2022-08-02T00:34:26.818Z,6.50
2022-08-02T00:36:09.086Z,9.13
2022-08-02T00:38:36.039Z,11.53
2022-08-02T00:41:02.962Z,9.80
2022-08-02T00:43:30.033Z,7.10
2022-08-02T00:46:02.173Z,13.27
2022-08-02T00:48:30.487Z,7.60
2022-08-02T00:50:58.060Z,9.60
2022-08-02T00:53:25.045Z,10.97
2022-08-02T00:55:51.884Z,11.93
2022-08-02T00:58:19.557Z,10.43
2022-08-02T01:00:46.528Z,11.70
2022-08-02T01:03:13.354Z,8.90
2022-08-02T01:06:02.181Z,7.87
2022-08-02T01:08:29.299Z,10.73
2022-08-02T01:10:58.649Z,9.20
2022-08-02T01:13:27.631Z,8.73
2022-08-02T01:16:02.356Z,8.33
2022-08-02T01:18:34.485Z,10.80
2022-08-02T01:21:20.213Z,11.33
2022-08-02T01:26:29.221Z,11.77
2022-08-02T01:29:04.385Z,12.00
2022-08-02T01:31:34.928Z,13.10
2022-08-02T01:34:34.228Z,12.53
2022-08-02T01:37:20.503Z,11.10
2022-08-02T01:39:52.342Z,10.43
2022-08-02T01:42:22.232Z,11.00
2022-08-02T01:44:52.058Z,13.17
2022-08-02T01:47:24.833Z,10.37
2022-08-02T01:49:54.896Z,10.60
2022-08-02T01:52:25.025Z,10.70
2022-08-02T01:55:18.575Z,10.00
2022-08-02T01:58:07.406Z,11.80
2022-08-02T02:00:40.110Z,12.47
2022-08-02T02:05:57.780Z,12.17
2022-08-02T02:08:31.804Z,11.47
2022-08-02T02:12:09.478Z,8.27
2022-08-02T02:13:49.793Z,10.63
2022-08-02T02:16:17.880Z,13.30
2022-08-02T02:18:47.253Z,8.30
2022-08-02T02:21:17.971Z,11.93
2022-08-02T02:23:45.837Z,13.30
2022-08-02T02:26:20.125Z,8.63
2022-08-02T02:29:02.361Z,9.33
2022-08-02T02:31:35.021Z,8.40
2022-08-02T02:34:11.526Z,8.07
2022-08-02T02:36:46.670Z,7.70
2022-08-02T02:39:15.978Z,6.73
2022-08-02T02:41:45.534Z,7.53
2022-08-02T02:44:17.266Z,11.30
2022-08-02T02:46:45.410Z,8.10
2022-08-02T02:49:13.525Z,10.07
2022-08-02T02:51:41.565Z,6.97
2022-08-02T02:54:27.078Z,7.60
2022-08-02T02:57:00.995Z,8.57
2022-08-02T02:59:28.443Z,9.70
2022-08-02T03:01:58.101Z,9.20
2022-08-02T03:04:55.939Z,8.03
2022-08-02T03:07:17.267Z,6.93
2022-08-02T03:12:11.960Z,8.93
2022-08-02T03:14:43.648Z,8.20
2022-08-02T03:19:39.368Z,14.95
2022-08-02T03:22:06.485Z,10.13
2022-08-02T03:24:33.522Z,11.50
2022-08-02T03:27:00.667Z,12.43
2022-08-02T03:29:30.455Z,10.33
2022-08-02T03:32:01.192Z,25.30
2022-08-02T03:34:28.464Z,12.60
2022-08-02T03:36:57.371Z,12.93
2022-08-02T03:39:25.814Z,11.60
2022-08-02T03:41:57.846Z,13.27
2022-08-02T03:44:26.741Z,10.63
2022-08-02T03:47:04.529Z,10.53
2022-08-02T03:49:32.366Z,10.53
2022-08-02T03:52:01.142Z,12.10
2022-08-02T03:54:34.422Z,10.73
2022-08-02T03:57:12.508Z,8.97
2022-08-02T03:59:44.469Z,9.83
2022-08-02T04:02:12.788Z,9.80
2022-08-02T04:04:40.782Z,10.10
2022-08-02T04:07:08.002Z,9.37
2022-08-02T04:09:42.749Z,9.60
2022-08-02T04:12:10.453Z,9.33
2022-08-02T04:14:38.124Z,8.60
2022-08-02T04:17:12.949Z,9.53
2022-08-02T04:19:44.910Z,8.00
2022-08-02T04:22:21.711Z,7.53
2022-08-02T04:24:54.681Z,8.30
2022-08-02T04:27:50.316Z,10.77
2022-08-02T04:30:11.356Z,10.20
2022-08-02T04:32:39.981Z,9.77
2022-08-02T04:35:19.107Z,8.57
2022-08-02T04:38:09.678Z,10.53
2022-08-02T04:40:36.047Z,8.67
2022-08-02T04:43:03.434Z,10.17
2022-08-02T04:45:31.777Z,8.77
2022-08-02T04:48:06.501Z,11.43
2022-08-02T04:50:34.675Z,7.87
2022-08-02T04:53:02.132Z,8.63
2022-08-02T04:55:30.320Z,7.93
2022-08-02T04:57:58.420Z,7.73
2022-08-02T05:00:28.834Z,12.97
2022-08-02T05:09:22.546Z,8.17
2022-08-02T05:11:54.973Z,7.53
2022-08-02T05:17:23.428Z,7.93
2022-08-02T05:19:51.177Z,9.83
2022-08-02T05:22:19.346Z,10.60
2022-08-02T05:24:46.306Z,7.70
2022-08-02T05:27:16.520Z,5.93
2022-08-02T05:29:52.980Z,7.23
2022-08-02T05:32:24.990Z,10.63
2022-08-02T05:34:53.316Z,5.70
2022-08-02T05:37:20.229Z,9.57
2022-08-02T05:39:55.340Z,7.67
2022-08-02T05:42:24.022Z,6.30
2022-08-02T05:44:51.461Z,6.28
2022-08-02T05:47:18.586Z,9.20
2022-08-02T05:49:45.691Z,5.88
2022-08-02T05:52:20.834Z,7.67
2022-08-02T05:54:55.853Z,6.63
2022-08-02T05:57:32.159Z,8.23
2022-08-02T06:00:14.882Z,7.75
2022-08-02T06:03:03.828Z,9.27
2022-08-02T06:05:35.788Z,8.77
2022-08-02T06:08:04.519Z,6.80
2022-08-02T06:10:36.660Z,8.93
2022-08-02T06:13:14.340Z,10.65
2022-08-02T06:18:27.881Z,10.02
2022-08-02T06:22:32.097Z,9.93
2022-08-02T06:23:58.876Z,6.18
2022-08-02T06:26:28.359Z,11.48
2022-08-02T06:28:57.916Z,8.88
2022-08-02T06:31:25.375Z,12.90
2022-08-02T06:37:00.790Z,9.00
2022-08-02T06:39:45.265Z,9.60
2022-08-02T06:42:16.761Z,10.50
2022-08-02T06:44:57.780Z,12.27
2022-08-02T06:50:07.766Z,14.50
2022-08-02T06:52:35.902Z,11.13
2022-08-02T06:55:04.849Z,8.90
2022-08-02T06:57:33.101Z,12.88
2022-08-02T07:00:02.730Z,8.00
2022-08-02T07:02:31.856Z,8.82
2022-08-02T07:07:40.366Z,13.05
2022-08-02T07:10:07.702Z,6.70
2022-08-02T07:12:36.729Z,12.73
2022-08-02T07:15:07.283Z,6.93
2022-08-02T07:17:36.133Z,8.02
2022-08-02T07:20:07.858Z,11.50
2022-08-02T07:25:22.097Z,12.93
2022-08-02T07:27:50.018Z,10.07
2022-08-02T07:30:16.861Z,10.80
2022-08-02T07:32:43.690Z,9.73
2022-08-02T07:35:10.626Z,12.60
2022-08-02T07:40:23.630Z,10.30
2022-08-02T07:42:54.587Z,11.57
2022-08-02T07:45:24.341Z,12.18
2022-08-02T07:47:52.219Z,7.43
2022-08-02T07:50:20.644Z,12.77
2022-08-02T07:52:49.720Z,14.07
2022-08-02T07:55:24.328Z,9.48
2022-08-02T07:58:07.280Z,7.63
2022-08-02T08:00:39.097Z,11.15
2022-08-02T08:03:06.427Z,9.35
2022-08-02T08:05:33.381Z,10.75
2022-08-02T08:08:00.321Z,9.88
2022-08-02T08:10:27.305Z,11.52
2022-08-02T08:12:55.303Z,8.50
2022-08-02T08:15:22.320Z,9.57
2022-08-02T08:17:49.223Z,9.85
2022-08-02T08:20:16.190Z,9.30
2022-08-02T08:22:43.256Z,9.25
2022-08-02T08:25:10.233Z,8.93
2022-08-02T08:27:37.181Z,12.32
2022-08-02T08:30:04.710Z,10.68
2022-08-02T08:32:31.556Z,8.88
2022-08-02T08:34:59.480Z,9.10
2022-08-02T08:37:27.393Z,7.22
2022-08-02T08:39:58.469Z,12.43
2022-08-02T08:42:30.528Z,7.95
2022-08-02T08:44:58.798Z,9.38
2022-08-02T08:47:34.460Z,7.97
2022-08-02T08:50:11.437Z,8.55
2022-08-02T08:53:05.119Z,7.30
2022-08-02T08:55:33.862Z,5.78
2022-08-02T08:58:02.517Z,7.70
2022-08-02T09:00:34.338Z,6.40
2022-08-02T09:03:06.337Z,9.43
2022-08-02T09:05:36.023Z,4.47
2022-08-02T09:08:03.198Z,6.45
2022-08-02T09:10:41.941Z,4.82
2022-08-02T09:13:38.389Z,6.45
2022-08-02T09:16:13.089Z,5.65
2022-08-02T09:18:46.451Z,5.95
2022-08-02T09:21:16.750Z,4.47
2022-08-02T09:23:46.825Z,26.27
2022-08-02T09:26:18.842Z,9.68
2022-08-02T09:28:47.853Z,5.55
2022-08-02T09:31:16.628Z,5.70
2022-08-02T09:33:44.810Z,3.67
2022-08-02T09:36:13.849Z,4.40
2022-08-02T09:38:51.716Z,3.42
2022-08-02T09:41:35.325Z,4.25
2022-08-02T09:44:06.517Z,6.25
2022-08-02T09:46:38.529Z,8.00
2022-08-02T09:49:19.923Z,4.30
2022-08-02T09:51:47.080Z,4.35
2022-08-02T09:54:20.353Z,7.50
2022-08-02T09:56:52.859Z,4.25
2022-08-02T09:59:24.854Z,4.88
2022-08-02T10:02:01.618Z,5.00
2022-08-02T10:04:34.439Z,4.30
2022-08-02T10:07:19.568Z,3.92
2022-08-02T10:09:48.941Z,5.40
2022-08-02T10:12:16.082Z,4.50
2022-08-02T10:14:44.304Z,3.83
2022-08-02T10:17:11.496Z,4.22
2022-08-02T10:20:00.590Z,4.15
2022-08-02T10:22:26.190Z,4.35
2022-08-02T10:24:53.815Z,5.20
2022-08-02T10:27:21.598Z,4.97
2022-08-02T10:29:54.004Z,3.20
2022-08-02T10:32:26.270Z,3.95
2022-08-02T10:35:25.587Z,5.28
2022-08-02T10:38:01.772Z,6.05
2022-08-02T10:40:52.551Z,5.47
2022-08-02T10:43:31.645Z,6.05
2022-08-02T10:46:36.955Z,4.53
2022-08-02T10:52:09.424Z,6.32
2022-08-02T10:54:39.508Z,5.32
2022-08-02T10:57:25.887Z,5.55
2022-08-02T11:00:02.445Z,4.80
2022-08-02T11:02:47.398Z,4.18
2022-08-02T11:05:27.852Z,5.97
2022-08-02T11:08:21.673Z,10.25
2022-08-02T11:10:48.701Z,6.43
2022-08-02T11:13:19.757Z,3.45
2022-08-02T11:16:10.590Z,2.50
2022-08-02T11:18:44.325Z,4.30
2022-08-02T11:21:25.245Z,4.88
2022-08-02T11:23:52.810Z,3.83
2022-08-02T11:26:32.061Z,3.88
2022-08-02T11:29:01.642Z,3.35
2022-08-02T11:31:29.811Z,4.78
2022-08-02T11:33:56.679Z,5.10
2022-08-02T11:36:23.705Z,4.10
2022-08-02T11:38:50.589Z,5.22
2022-08-02T11:41:45.903Z,3.15
2022-08-02T11:44:08.829Z,4.70
2022-08-02T11:46:35.710Z,6.32
2022-08-02T11:49:19.069Z,6.78
2022-08-02T11:52:01.803Z,6.57
2022-08-02T11:54:30.724Z,3.78
2022-08-02T11:57:23.836Z,3.45
2022-08-02T11:59:53.193Z,4.40
2022-08-02T12:02:22.380Z,3.00
2022-08-02T12:05:01.965Z,2.90
2022-08-02T12:07:34.701Z,2.95
2022-08-02T12:10:11.937Z,3.78
2022-08-02T12:13:01.141Z,6.82
2022-08-02T12:15:34.933Z,5.55
2022-08-02T12:18:20.766Z,3.50
2022-08-02T12:20:47.978Z,3.17
2022-08-02T12:23:14.969Z,5.35
2022-08-02T12:25:42.067Z,3.63
2022-08-02T12:28:22.502Z,5.38
2022-08-02T12:30:51.150Z,4.80
2022-08-02T12:33:18.217Z,2.85
2022-08-02T12:35:45.211Z,3.05
2022-08-02T12:38:13.049Z,2.85
2022-08-02T12:40:40.068Z,5.68
2022-08-02T12:43:07.978Z,3.22
2022-08-02T12:45:56.661Z,3.40
2022-08-02T12:48:39.229Z,3.63
2022-08-02T12:51:22.274Z,4.07
2022-08-02T12:54:00.071Z,5.10
2022-08-02T12:56:28.094Z,2.45
2022-08-02T12:58:54.935Z,3.95
2022-08-02T13:01:23.574Z,3.70
2022-08-02T13:04:07.935Z,2.85
2022-08-02T13:06:45.665Z,3.13
2022-08-02T13:09:17.334Z,2.85
2022-08-02T13:11:45.940Z,3.53
2022-08-02T13:14:14.720Z,3.38
2022-08-02T13:16:43.827Z,4.97
2022-08-02T13:19:10.813Z,4.72
2022-08-02T13:21:41.413Z,4.68
2022-08-02T13:27:08.132Z,2.88
2022-08-02T13:29:37.704Z,3.17
2022-08-02T13:34:46.505Z,5.53
2022-08-02T13:37:13.635Z,4.85
2022-08-02T13:42:23.725Z,3.53
2022-08-02T13:48:04.720Z,2.38
2022-08-02T13:50:24.954Z,3.47
2022-08-02T13:53:04.302Z,3.60
2022-08-02T13:55:31.785Z,2.38
2022-08-02T13:57:59.116Z,3.33
2022-08-02T14:00:35.142Z,2.53
2022-08-02T14:03:07.677Z,2.78
2022-08-02T14:05:48.100Z,2.80
2022-08-02T14:08:18.301Z,4.63
2022-08-02T14:10:49.721Z,4.82
2022-08-02T14:13:17.843Z,4.28
2022-08-02T14:15:45.067Z,3.50
2022-08-02T14:18:13.111Z,2.38
2022-08-02T14:20:40.854Z,34.15
2022-08-02T14:23:09.012Z,7.30
2022-08-02T14:25:38.650Z,3.13
2022-08-02T14:28:07.041Z,3.50
2022-08-02T14:30:34.522Z,3.85
2022-08-02T14:33:03.393Z,2.20
2022-08-02T14:35:31.382Z,3.78
2022-08-02T14:37:58.653Z,4.18
2022-08-02T14:40:31.787Z,2.13
2022-08-02T14:43:00.915Z,3.47
2022-08-02T14:45:40.393Z,2.67
2022-08-02T14:48:28.330Z,2.75
2022-08-02T14:50:56.130Z,2.63
2022-08-02T14:54:02.821Z,3.25
2022-08-02T14:56:31.374Z,2.85
2022-08-02T14:58:58.521Z,2.08
2022-08-02T15:01:26.251Z,3.65
2022-08-02T15:03:54.671Z,1.90
2022-08-02T15:06:23.684Z,3.83
2022-08-02T15:11:31.919Z,3.58
2022-08-02T15:14:18.507Z,5.43
2022-08-02T15:16:58.021Z,5.38
2022-08-02T15:19:58.966Z,3.50
2022-08-02T15:22:19.075Z,2.30
2022-08-02T15:24:47.864Z,3.65
2022-08-02T15:27:15.871Z,2.20
2022-08-02T15:29:45.143Z,3.30
2022-08-02T15:32:13.945Z,1.85
2022-08-02T15:34:41.697Z,2.50
2022-08-02T15:37:09.186Z,3.50
2022-08-02T15:39:36.879Z,4.03
2022-08-02T15:42:04.455Z,3.75
2022-08-02T15:44:31.654Z,2.97
2022-08-02T15:46:59.211Z,2.60
2022-08-02T15:49:29.744Z,4.88
2022-08-02T15:51:56.798Z,1.98
2022-08-02T15:54:24.162Z,4.03
2022-08-02T15:56:51.226Z,3.60
2022-08-02T15:59:19.014Z,2.15
2022-08-02T16:01:48.071Z,2.17
2022-08-02T16:04:17.015Z,1.77
2022-08-02T16:06:44.850Z,3.47
2022-08-02T16:09:12.417Z,2.72
2022-08-02T16:14:20.410Z,2.03
2022-08-02T16:16:47.442Z,3.50
2022-08-02T16:19:46.039Z,3.10
2022-08-02T16:22:02.049Z,4.80
2022-08-02T16:24:31.199Z,3.22
2022-08-02T16:27:10.589Z,2.30
2022-08-02T16:29:41.728Z,2.10
2022-08-02T16:32:09.216Z,4.13
2022-08-02T16:35:04.091Z,7.65
2022-08-02T16:37:23.907Z,4.85
2022-08-02T16:39:51.286Z,3.63
2022-08-02T16:42:24.992Z,2.85
2022-08-02T16:44:54.889Z,2.35
2022-08-02T16:47:42.862Z,2.67
2022-08-02T16:50:27.140Z,3.05
2022-08-02T16:55:53.273Z,2.58
2022-08-02T16:58:20.337Z,5.72
2022-08-02T17:03:33.532Z,2.60
2022-08-02T17:06:17.701Z,4.00
2022-08-02T17:08:54.271Z,4.65
2022-08-02T17:11:23.648Z,2.28
2022-08-02T17:13:52.849Z,3.10
2022-08-02T17:16:25.859Z,2.67
2022-08-02T17:19:06.953Z,4.47
2022-08-02T17:24:53.986Z,2.15
2022-08-02T17:27:21.285Z,1.75
2022-08-02T17:29:57.632Z,3.10
2022-08-02T17:32:25.310Z,2.08
2022-08-02T17:35:11.243Z,4.25
2022-08-02T17:40:23.798Z,2.13
2022-08-02T17:42:53.145Z,2.05
2022-08-02T17:45:25.175Z,5.35
2022-08-02T17:50:48.854Z,1.75
2022-08-02T17:53:39.661Z,3.55
2022-08-02T17:56:07.009Z,3.65
2022-08-02T18:03:55.870Z,2.40
2022-08-02T18:06:26.067Z,2.03
2022-08-02T18:09:04.214Z,2.67
2022-08-02T18:11:52.033Z,2.95
2022-08-02T18:14:26.386Z,1.98
2022-08-02T18:19:59.244Z,12.60
2022-08-02T18:23:02.362Z,3.40
2022-08-02T18:25:37.835Z,1.95
2022-08-02T18:28:19.701Z,3.83
2022-08-02T18:30:54.663Z,2.65
2022-08-02T18:33:56.938Z,5.43
2022-08-02T18:36:24.424Z,2.55
2022-08-02T18:39:08.114Z,2.58
2022-08-02T18:41:36.769Z,2.10
2022-08-02T18:44:06.926Z,3.42
2022-08-02T18:46:35.304Z,2.45
2022-08-02T18:49:13.567Z,3.47
2022-08-02T18:54:26.583Z,2.95
2022-08-02T18:57:01.157Z,2.83
2022-08-02T18:59:40.162Z,2.40
2022-08-02T19:05:52.287Z,4.20
2022-08-02T19:08:28.479Z,2.42
2022-08-02T19:10:56.175Z,2.30
2022-08-02T19:13:42.790Z,1.92
2022-08-02T19:18:51.360Z,4.85
2022-08-02T19:21:18.672Z,3.35
2022-08-02T19:24:06.700Z,2.28
2022-08-02T19:26:35.995Z,2.65
2022-08-02T19:29:08.748Z,3.17
2022-08-02T19:32:00.294Z,3.15
2022-08-02T19:34:25.167Z,5.10
2022-08-02T19:36:52.120Z,2.75
2022-08-02T19:39:19.104Z,2.88
2022-08-02T19:41:50.054Z,4.25
2022-08-02T19:44:23.314Z,2.50
2022-08-02T19:46:55.792Z,3.78
2022-08-02T19:49:40.111Z,4.40
2022-08-02T19:52:20.693Z,3.35
2022-08-02T19:54:54.104Z,3.20
2022-08-02T19:57:23.198Z,4.65
2022-08-02T19:59:52.526Z,4.45
2022-08-02T20:02:21.412Z,4.80
2022-08-02T20:04:50.110Z,4.43
2022-08-02T20:10:15.959Z,4.55
2022-08-02T20:12:53.727Z,3.72
2022-08-02T20:15:21.811Z,4.07
2022-08-02T20:17:49.141Z,3.45
2022-08-02T20:20:17.289Z,3.58
2022-08-02T20:23:31.992Z,2.63
2022-08-02T20:25:54.489Z,2.95
2022-08-02T20:28:22.356Z,5.00
2022-08-02T20:30:49.732Z,2.58
2022-08-02T20:36:03.813Z,3.45
2022-08-02T20:38:31.141Z,2.58
2022-08-02T20:40:58.557Z,3.90
2022-08-02T20:43:31.551Z,4.50
2022-08-02T20:46:05.642Z,3.03
2022-08-02T20:48:32.841Z,3.70
2022-08-02T20:50:59.946Z,3.00
2022-08-02T20:53:34.926Z,2.83
2022-08-02T20:56:22.127Z,2.95
2022-08-02T20:58:51.921Z,3.15
2022-08-02T21:01:21.338Z,5.75
2022-08-02T21:03:58.646Z,4.18
2022-08-02T21:06:28.126Z,3.90
2022-08-02T21:08:56.144Z,3.45
2022-08-02T21:11:25.537Z,2.92
2022-08-02T21:14:11.144Z,2.70
2022-08-02T21:16:39.669Z,3.47
2022-08-02T21:19:08.099Z,3.25
2022-08-02T21:21:37.664Z,5.03
2022-08-02T21:24:05.232Z,2.78
2022-08-02T21:26:32.975Z,3.83
2022-08-02T21:29:03.491Z,2.58
2022-08-02T21:31:35.677Z,3.35
2022-08-02T21:34:03.885Z,3.78
2022-08-02T21:36:49.090Z,2.83
2022-08-02T21:39:17.806Z,4.03
2022-08-02T21:41:46.107Z,5.65
2022-08-02T21:44:22.170Z,2.75
2022-08-02T21:46:51.711Z,4.30
2022-08-02T21:49:20.792Z,2.97
2022-08-02T21:51:54.725Z,2.97
2022-08-02T21:54:22.467Z,3.28
2022-08-02T21:56:51.971Z,3.72
2022-08-02T21:59:25.877Z,3.53
2022-08-02T22:01:57.567Z,5.68
2022-08-02T22:04:26.199Z,6.93
2022-08-02T22:06:56.705Z,4.05
2022-08-02T22:15:03.677Z,4.03
2022-08-02T22:17:53.653Z,3.92
2022-08-02T22:20:20.079Z,4.68
2022-08-02T22:22:50.332Z,4.22
2022-08-02T22:25:27.212Z,4.40
2022-08-02T22:28:36.586Z,4.32
2022-08-02T22:31:00.156Z,5.00
2022-08-02T22:33:47.061Z,4.68
2022-08-02T22:36:30.657Z,5.22
2022-08-02T22:38:57.755Z,4.70
2022-08-02T22:41:24.795Z,5.07
2022-08-02T22:43:51.717Z,5.03
2022-08-02T22:46:18.741Z,8.32
2022-08-02T22:48:53.572Z,5.10
2022-08-02T22:51:21.446Z,8.68
2022-08-02T22:53:48.417Z,7.75
2022-08-02T22:56:15.576Z,6.72
2022-08-02T22:58:51.223Z,2.13
2022-08-02T22:58:54.483Z,4.72
2022-08-02T22:58:57.629Z,3.20
2022-08-02T22:59:07.696Z,3.92
2022-08-02T22:59:11.398Z,4.85
2022-08-02T22:59:12.997Z,7.70
2022-08-02T23:01:29.713Z,7.30
2022-08-02T23:03:56.689Z,5.93
2022-08-02T23:06:23.556Z,4.85
2022-08-02T23:08:51.687Z,5.50
2022-08-02T23:11:18.645Z,4.60
2022-08-02T23:13:45.528Z,5.95
2022-08-02T23:16:30.962Z,6.10
2022-08-02T23:19:16.399Z,5.70
2022-08-02T23:22:02.101Z,6.10
2022-08-02T23:24:30.698Z,4.47
2022-08-02T23:26:57.532Z,6.72
2022-08-02T23:29:24.557Z,6.25
2022-08-02T23:31:51.425Z,4.60
2022-08-02T23:34:19.762Z,4.75
2022-08-02T23:36:46.703Z,4.82
2022-08-02T23:39:13.703Z,6.57
2022-08-02T23:41:40.746Z,8.18
2022-08-02T23:44:15.460Z,8.45
2022-08-02T23:46:44.855Z,6.78
2022-08-02T23:49:13.083Z,6.85
2022-08-02T23:51:40.064Z,5.65
2022-08-02T23:54:07.240Z,5.75
2022-08-02T23:56:34.332Z,7.18
2022-08-02T23:59:01.176Z,5.50
